Time;durP1;ratioP1;P1;durP2;ratioP2;P2;SDS_P1;SDS_P2;PMS_P1;PMS_P2;Temp;Humidity;BMP_temperature;BMP_pressure;BME280_temperature;BME280_humidity;BME280_pressure;Samples;Min_cycle;Max_cycle;Signal;HPM_P1;HPM_P2
2022/11/15 00:02:59;;;;;;;27.77;18.03;;;;;;;6.46;100.00;96539.16;10447283;28;20314;-60
2022/11/15 00:08:18;;;;;;;26.73;17.00;;;;;;;6.06;100.00;96559.06;10448806;28;20196;-62
2022/11/15 00:13:37;;;;;;;28.17;18.53;;;;;;;5.92;100.00;96549.81;10447744;28;20212;-62
2022/11/15 00:18:57;;;;;;;24.47;16.83;;;;;;;6.28;100.00;96560.66;10448698;28;20195;-62
2022/11/15 00:24:16;;;;;;;25.97;16.80;;;;;;;6.27;100.00;96552.97;10447234;28;20594;-59
2022/11/15 00:29:37;;;;;;;27.07;17.00;;;;;;;6.19;100.00;96536.25;10447870;28;20200;-62
2022/11/15 00:34:56;;;;;;;24.30;16.33;;;;;;;5.68;100.00;96532.78;10446621;28;20608;-61
2022/11/15 00:40:15;;;;;;;24.13;15.80;;;;;;;5.68;100.00;96542.34;10447773;28;20290;-62
2022/11/15 00:45:34;;;;;;;24.13;16.10;;;;;;;5.76;100.00;96546.88;10446737;28;20618;-61
2022/11/15 00:50:53;;;;;;;27.23;16.17;;;;;;;5.90;100.00;96546.53;10446955;28;20220;-62
2022/11/15 00:56:12;;;;;;;24.33;15.33;;;;;;;6.06;100.00;96536.50;10446828;28;20191;-62
2022/11/15 01:01:31;;;;;;;24.07;13.93;;;;;;;6.18;100.00;96528.59;10446179;28;20232;-62
2022/11/15 01:06:49;;;;;;;21.10;13.63;;;;;;;6.28;100.00;96523.38;10447207;28;20196;-61
2022/11/15 01:12:09;;;;;;;23.10;15.13;;;;;;;6.20;100.00;96526.66;10451495;28;20215;-61
2022/11/15 01:17:27;;;;;;;27.17;14.80;;;;;;;6.21;100.00;96521.31;10454243;28;20190;-61
2022/11/15 01:22:46;;;;;;;25.17;15.47;;;;;;;6.05;100.00;96521.03;10453720;28;20212;-60
2022/11/15 01:28:05;;;;;;;24.93;15.10;;;;;;;5.88;100.00;96505.06;10454432;28;20184;-61
2022/11/15 01:33:24;;;;;;;25.40;17.37;;;;;;;5.69;100.00;96518.00;10452932;28;20204;-60
2022/11/15 01:38:44;;;;;;;28.13;15.97;;;;;;;5.61;100.00;96516.06;10453414;28;20192;-59
2022/11/15 01:44:34;;;;;;;23.50;13.90;;;;;;;5.76;100.00;96511.34;10452350;28;20614;-61
2022/11/15 01:50:05;;;;;;;25.80;13.97;;;;;;;5.76;100.00;96495.75;10452631;28;20216;-61
2022/11/15 01:55:26;;;;;;;25.30;15.37;;;;;;;5.72;100.00;96479.56;10451957;28;20290;-61
2022/11/15 02:00:45;;;;;;;22.70;15.17;;;;;;;5.66;100.00;96474.91;10451353;28;20610;-61
2022/11/15 02:06:05;;;;;;;23.67;13.87;;;;;;;5.75;100.00;96470.69;10451081;28;20255;-61
2022/11/15 02:11:23;;;;;;;19.27;12.80;;;;;;;5.75;100.00;96469.88;10452144;28;20211;-61
2022/11/15 02:17:10;;;;;;;21.17;13.40;;;;;;;5.91;100.00;96464.97;10451136;28;20642;-61
2022/11/15 02:22:42;;;;;;;20.17;11.13;;;;;;;6.14;100.00;96454.38;10451690;28;20223;-62
2022/11/15 02:28:33;;;;;;;24.03;12.50;;;;;;;6.35;100.00;96454.25;10451335;28;20200;-61
2022/11/15 02:33:59;;;;;;;19.97;10.50;;;;;;;6.31;100.00;96437.28;10450382;28;20208;-62
2022/11/15 02:39:21;;;;;;;21.03;12.67;;;;;;;6.24;100.00;96422.22;10450271;28;20666;-61
2022/11/15 02:44:43;;;;;;;22.00;12.93;;;;;;;6.41;100.00;96410.28;10450050;28;20258;-62
2022/11/15 02:50:08;;;;;;;17.27;10.47;;;;;;;6.33;100.00;96410.16;10449483;28;20224;-62
2022/11/15 02:55:30;;;;;;;14.27;8.90;;;;;;;6.18;100.00;96416.75;10447976;28;20276;-61
2022/11/15 03:00:59;;;;;;;25.37;12.03;;;;;;;5.91;100.00;96402.56;10449158;28;20246;-61
2022/11/15 03:06:37;;;;;;;22.50;13.20;;;;;;;5.67;100.00;96405.56;10448016;28;20302;-60
2022/11/15 03:12:00;;;;;;;18.33;11.40;;;;;;;5.60;100.00;96409.66;10448765;28;20291;-61
2022/11/15 03:17:30;;;;;;;23.30;12.63;;;;;;;5.47;100.00;96405.50;10448965;28;20196;-61
2022/11/15 03:22:49;;;;;;;20.10;11.93;;;;;;;5.56;100.00;96411.69;10448513;28;21052;-61
2022/11/15 03:28:15;;;;;;;20.90;12.67;;;;;;;5.70;100.00;96400.91;10393290;22;20242;-63
2022/11/15 03:33:41;;;;;;;25.17;12.77;;;;;;;5.76;100.00;96409.13;10331327;28;20178;-62
2022/11/15 03:39:02;;;;;;;20.97;11.67;;;;;;;5.79;100.00;96398.47;10340190;28;20230;-64
2022/11/15 03:44:42;;;;;;;22.00;11.90;;;;;;;5.66;100.00;96391.72;10322465;28;20229;-65
2022/11/15 03:50:06;;;;;;;20.70;11.07;;;;;;;5.63;100.00;96393.78;10326048;28;20197;-64
2022/11/15 03:55:25;;;;;;;17.77;10.50;;;;;;;5.75;100.00;96390.13;10337161;28;20205;-65
2022/11/15 04:00:44;;;;;;;17.73;11.07;;;;;;;5.68;100.00;96392.44;10325897;28;20198;-64
2022/11/15 04:06:03;;;;;;;16.83;10.77;;;;;;;5.55;100.00;96394.44;10319164;28;20241;-64
2022/11/15 04:11:22;;;;;;;19.37;11.00;;;;;;;5.50;100.00;96400.06;10356464;28;20212;-64
2022/11/15 04:16:41;;;;;;;17.63;10.00;;;;;;;5.47;100.00;96391.72;10358557;28;20221;-64
2022/11/15 04:27:38;;;;;;;16.00;10.07;;;;;;;5.29;100.00;96384.53;10357790;28;20269;-63
2022/11/15 04:32:57;;;;;;;20.20;10.10;;;;;;;5.25;100.00;96385.75;10358897;28;20197;-65
2022/11/15 04:38:15;;;;;;;11.87;8.10;;;;;;;5.33;100.00;96382.50;10358121;28;20217;-63
2022/11/15 04:43:34;;;;;;;16.37;9.60;;;;;;;5.30;100.00;96380.19;10357617;28;20233;-65
2022/11/15 04:48:54;;;;;;;16.57;8.43;;;;;;;5.32;100.00;96383.47;10366377;28;20355;-64
2022/11/15 04:54:13;;;;;;;22.83;9.53;;;;;;;5.23;100.00;96382.47;10365056;28;20193;-64
2022/11/15 04:59:32;;;;;;;14.13;8.33;;;;;;;5.28;100.00;96377.72;10365955;28;20296;-63
2022/11/15 05:04:51;;;;;;;15.07;8.43;;;;;;;5.29;100.00;96368.94;10369648;28;20751;-64
2022/11/15 05:10:10;;;;;;;14.77;8.13;;;;;;;5.21;100.00;96374.00;10371867;28;20296;-63
2022/11/15 05:15:28;;;;;;;16.33;8.90;;;;;;;5.09;100.00;96372.44;10370696;28;20213;-64
2022/11/15 05:20:47;;;;;;;15.67;8.87;;;;;;;5.11;100.00;96373.94;10360535;28;20201;-63
2022/11/15 05:26:07;;;;;;;11.80;8.13;;;;;;;5.14;100.00;96365.06;10330784;28;20225;-64
2022/11/15 05:31:27;;;;;;;15.77;9.00;;;;;;;5.21;100.00;96361.00;10331817;28;20680;-64
2022/11/15 05:36:46;;;;;;;14.37;9.30;;;;;;;5.07;100.00;96361.34;10330631;28;20214;-62
2022/11/15 05:42:06;;;;;;;18.33;9.30;;;;;;;5.22;100.00;96365.22;10331781;28;20217;-66
2022/11/15 05:47:27;;;;;;;11.47;7.47;;;;;;;5.26;100.00;96355.41;10344101;28;20297;-63
2022/11/15 05:52:47;;;;;;;13.83;8.30;;;;;;;5.13;100.00;96360.81;10330263;28;20194;-64
2022/11/15 05:58:05;;;;;;;13.10;8.00;;;;;;;5.09;100.00;96354.25;10342522;28;20222;-64
2022/11/15 06:03:24;;;;;;;15.33;8.87;;;;;;;5.00;100.00;96359.28;10329580;28;20312;-65
2022/11/15 06:08:43;;;;;;;14.67;8.60;;;;;;;4.88;100.00;96351.72;10329691;28;20229;-64
2022/11/15 06:14:02;;;;;;;13.60;6.97;;;;;;;4.69;100.00;96352.47;10329788;28;20194;-62
2022/11/15 06:19:21;;;;;;;15.00;7.33;;;;;;;4.75;100.00;96357.13;10329582;28;20324;-65
2022/11/15 06:24:40;;;;;;;14.63;8.10;;;;;;;4.86;100.00;96366.59;10329088;28;20229;-65
2022/11/15 06:29:59;;;;;;;13.53;7.63;;;;;;;4.93;100.00;96365.97;10329389;28;20198;-65
2022/11/15 06:35:18;;;;;;;14.80;7.60;;;;;;;5.11;100.00;96357.53;10328165;28;20652;-65
2022/11/15 06:40:38;;;;;;;11.23;7.07;;;;;;;5.27;100.00;96362.25;10329944;28;20194;-66
2022/11/15 06:46:04;;;;;;;9.97;6.53;;;;;;;5.31;100.00;96364.47;10329283;28;20257;-65
2022/11/15 06:51:23;;;;;;;10.27;6.30;;;;;;;5.44;100.00;96369.41;10321864;28;20194;-65
2022/11/15 06:56:42;;;;;;;16.17;7.83;;;;;;;5.45;100.00;96367.63;10287077;28;21042;-65
2022/11/15 07:02:01;;;;;;;12.77;7.50;;;;;;;5.49;100.00;96367.22;10287883;28;20230;-65
2022/11/15 07:07:20;;;;;;;14.10;6.80;;;;;;;5.50;100.00;96360.28;10285685;28;20305;-66
2022/11/15 07:12:39;;;;;;;10.67;7.13;;;;;;;5.41;100.00;96368.84;10288653;28;20625;-65
2022/11/15 07:18:01;;;;;;;13.90;7.17;;;;;;;5.35;100.00;96365.81;10286765;28;20305;-66
2022/11/15 07:23:19;;;;;;;12.90;7.07;;;;;;;5.74;100.00;96365.06;10286896;28;20276;-65
2022/11/15 07:28:38;;;;;;;11.50;6.33;;;;;;;6.17;100.00;96363.91;10286053;28;20238;-63
2022/11/15 07:33:57;;;;;;;12.23;7.10;;;;;;;6.44;100.00;96357.16;10286054;28;20187;-64
2022/11/15 07:39:16;;;;;;;9.83;6.43;;;;;;;6.78;100.00;96354.91;10294179;28;20221;-64
2022/11/15 07:44:35;;;;;;;9.77;6.57;;;;;;;6.95;100.00;96355.09;10325825;28;20222;-64
2022/11/15 07:49:54;;;;;;;10.13;6.70;;;;;;;7.22;100.00;96353.50;10312291;28;20205;-64
2022/11/15 07:55:13;;;;;;;13.40;6.90;;;;;;;7.83;100.00;96350.25;10322039;28;20221;-60
2022/11/15 08:00:32;;;;;;;11.97;5.57;;;;;;;8.07;100.00;96335.81;10322626;28;20206;-64
2022/11/15 08:05:52;;;;;;;11.10;5.73;;;;;;;8.30;100.00;96344.00;10321102;28;20257;-63
2022/11/15 08:11:11;;;;;;;6.00;4.67;;;;;;;8.43;100.00;96333.16;10322742;28;20213;-62
2022/11/15 08:16:29;;;;;;;12.23;5.50;;;;;;;8.57;100.00;96327.41;10322674;28;20213;-62
2022/11/15 08:21:48;;;;;;;7.17;4.07;;;;;;;9.17;100.00;96319.72;10303778;28;20725;-62
2022/11/15 08:27:14;;;;;;;5.30;4.30;;;;;;;9.35;100.00;96285.63;10306503;28;20321;-64
2022/11/15 08:32:33;;;;;;;7.57;3.33;;;;;;;9.84;100.00;96298.78;10307655;28;20199;-62
2022/11/15 08:37:53;;;;;;;7.50;3.97;;;;;;;10.33;98.82;96284.91;10296781;28;20226;-62
2022/11/15 08:43:12;;;;;;;6.18;3.70;;;;;;;11.24;94.81;96272.38;10298105;28;20233;-62
2022/11/15 08:48:31;;;;;;;5.15;2.70;;;;;;;11.52;88.94;96241.22;10330900;28;20213;-63
2022/11/15 08:53:49;;;;;;;3.10;2.38;;;;;;;12.07;83.80;96210.50;10330734;28;20198;-63
2022/11/15 08:59:08;;;;;;;4.78;2.30;;;;;;;12.41;80.27;96185.53;10328064;28;20296;-62
2022/11/15 09:04:27;;;;;;;3.58;2.20;;;;;;;13.00;76.44;96161.00;10328343;28;20221;-62
2022/11/15 09:09:46;;;;;;;2.80;1.83;;;;;;;12.56;76.17;96164.53;10329817;28;20641;-62
2022/11/15 09:15:06;;;;;;;3.60;1.95;;;;;;;12.49;76.29;96163.59;10325992;28;20585;-63
2022/11/15 09:20:25;;;;;;;4.53;2.28;;;;;;;13.24;73.13;96147.69;10325306;28;20199;-63
2022/11/15 09:25:44;;;;;;;5.93;2.70;;;;;;;13.80;71.06;96126.75;10304262;28;20304;-61
2022/11/15 09:31:04;;;;;;;2.88;2.42;;;;;;;14.25;68.08;96116.72;10355345;23;20237;-75
2022/11/15 09:36:23;;;;;;;4.00;2.08;;;;;;;14.53;67.30;96107.94;10370556;28;20213;-76
2022/11/15 09:41:42;;;;;;;4.72;2.60;;;;;;;14.50;67.55;96110.16;10370757;28;20699;-75
2022/11/15 09:47:05;;;;;;;2.67;2.05;;;;;;;14.38;66.80;96094.06;10370396;28;20197;-75
2022/11/15 09:52:28;;;;;;;5.47;2.45;;;;;;;14.33;66.54;96099.13;10363440;28;20201;-75
2022/11/15 09:57:33;;;;;;;3.75;2.10;;;;;;;14.90;66.00;96099.75;10366257;28;20193;-75
2022/11/15 10:02:47;;;;;;;2.75;1.90;;;;;;;16.27;62.45;96062.41;10367010;28;20744;-75
2022/11/15 10:07:51;;;;;;;2.28;1.95;;;;;;;16.78;60.20;96029.81;10364637;28;20197;-75
2022/11/15 10:12:52;;;;;;;1.95;1.60;;;;;;;15.85;59.58;95997.50;10368806;28;20237;-75
2022/11/15 10:18:17;;;;;;;1.98;1.73;;;;;;;16.48;59.31;96016.38;10367520;28;20216;-75
2022/11/15 10:23:23;;;;;;;2.10;1.80;;;;;;;15.90;60.25;96010.09;10351962;28;20275;-75
2022/11/15 10:28:28;;;;;;;4.32;1.83;;;;;;;16.14;59.74;96002.47;10367454;28;20237;-75
2022/11/15 10:33:33;;;;;;;4.43;2.38;;;;;;;16.47;58.27;95985.66;10368331;28;20221;-75
2022/11/15 10:38:49;;;;;;;3.95;1.98;;;;;;;16.29;57.14;95952.81;10367313;28;20209;-75
2022/11/15 10:44:01;;;;;;;4.38;2.47;;;;;;;16.72;56.96;95967.19;10366506;28;20304;-75
2022/11/15 10:49:24;;;;;;;2.95;2.10;;;;;;;17.55;55.85;95967.97;10366305;28;20197;-75
2022/11/15 10:54:28;;;;;;;2.45;1.67;;;;;;;17.75;54.26;95931.50;10367272;28;20196;-75
2022/11/15 10:59:31;;;;;;;4.25;1.60;;;;;;;17.95;53.21;95910.13;10368081;28;20201;-75
2022/11/15 11:04:49;;;;;;;5.32;1.88;;;;;;;17.97;53.42;95913.34;10365114;28;20209;-75
2022/11/15 11:09:58;;;;;;;3.03;1.52;;;;;;;16.54;55.02;95902.63;10366256;28;20189;-75
2022/11/15 11:15:01;;;;;;;2.38;1.80;;;;;;;17.67;54.74;95928.34;10366942;28;20328;-75
2022/11/15 11:20:32;;;;;;;3.10;1.98;;;;;;;17.99;53.73;95913.94;10367057;28;20320;-76
2022/11/15 11:25:40;;;;;;;2.10;1.50;;;;;;;18.99;50.39;95858.63;10363471;28;20583;-75
2022/11/15 11:30:57;;;;;;;2.63;1.48;;;;;;;19.75;50.32;95881.75;10366630;28;20283;-75
2022/11/15 11:36:05;;;;;;;3.00;1.58;;;;;;;19.61;49.77;95855.44;10365347;28;20631;-75
2022/11/15 11:41:29;;;;;;;2.03;1.50;;;;;;;18.81;50.11;95838.28;10366143;28;20197;-75
2022/11/15 11:46:44;;;;;;;5.72;1.60;;;;;;;18.27;50.52;95821.59;10325758;28;20235;-75
2022/11/15 11:51:53;;;;;;;2.47;1.20;;;;;;;17.38;52.36;95851.25;10365476;28;20236;-75
2022/11/15 11:56:54;;;;;;;3.42;1.52;;;;;;;18.61;50.77;95841.28;10360051;28;20185;-75
2022/11/15 12:01:54;;;;;;;1.42;1.15;;;;;;;18.33;50.75;95840.06;10360115;28;20197;-76
2022/11/15 12:07:17;;;;;;;2.65;1.30;;;;;;;17.86;50.25;95812.59;10364866;28;20205;-75
2022/11/15 12:12:25;;;;;;;2.10;1.42;;;;;;;17.57;50.35;95785.84;10363377;28;20224;-75
2022/11/15 12:17:31;;;;;;;3.03;1.60;;;;;;;18.65;49.58;95800.00;10362705;28;20193;-75
2022/11/15 12:22:56;;;;;;;2.10;1.60;;;;;;;18.77;49.09;95792.00;10364325;28;20581;-75
2022/11/15 12:28:35;;;;;;;4.20;1.48;;;;;;;18.77;49.86;95801.81;10363856;28;20256;-74
2022/11/15 12:33:36;;;;;;;3.70;1.48;;;;;;;19.18;49.11;95787.63;10334660;28;20674;-74
2022/11/15 12:38:56;;;;;;;5.47;1.23;;;;;;;19.41;48.55;95773.47;10364343;28;20205;-74
2022/11/15 12:43:59;;;;;;;2.53;1.63;;;;;;;18.40;50.08;95771.00;10364863;28;20221;-74
2022/11/15 12:49:09;;;;;;;4.90;1.70;;;;;;;18.74;49.81;95779.22;10362890;28;20212;-74
2022/11/15 12:54:22;;;;;;;2.08;1.25;;;;;;;18.44;49.68;95761.56;10362744;28;20248;-75
2022/11/15 12:59:52;;;;;;;5.72;1.58;;;;;;;18.98;50.11;95787.19;10364063;28;20204;-75
2022/11/15 13:04:55;;;;;;;4.38;1.77;;;;;;;18.72;48.62;95729.03;10363461;28;20219;-75
2022/11/15 13:09:55;;;;;;;2.65;1.40;;;;;;;18.84;49.35;95754.75;10372937;28;20193;-75
2022/11/15 13:15:13;;;;;;;4.00;1.75;;;;;;;19.36;48.40;95740.72;10372661;28;20193;-75
2022/11/15 13:20:16;;;;;;;2.40;1.48;;;;;;;19.05;48.03;95724.16;10371408;28;20208;-74
2022/11/15 13:25:25;;;;;;;4.97;1.88;;;;;;;18.53;48.34;95715.09;10370389;28;20221;-75
2022/11/15 13:30:27;;;;;;;4.60;1.73;;;;;;;17.30;50.58;95727.94;10371019;28;20243;-75
2022/11/15 13:35:31;;;;;;;5.22;2.38;;;;;;;17.83;50.89;95748.41;10368776;28;20197;-76
2022/11/15 13:40:36;;;;;;;3.53;1.95;;;;;;;17.84;50.53;95743.91;10369403;28;20209;-76
2022/11/15 13:45:37;;;;;;;2.55;2.05;;;;;;;16.74;52.34;95754.38;10368698;28;20221;-76
2022/11/15 13:50:38;;;;;;;2.92;1.77;;;;;;;16.38;53.06;95748.00;10369676;28;20389;-76
2022/11/15 13:55:38;;;;;;;4.15;1.98;;;;;;;16.72;52.95;95766.19;10365467;28;20816;-75
2022/11/15 14:00:43;;;;;;;4.82;2.47;;;;;;;16.69;53.52;95777.22;10367547;28;20200;-76
2022/11/15 14:06:02;;;;;;;4.40;1.70;;;;;;;16.28;55.10;95783.88;10366281;28;20225;-75
2022/11/15 14:11:15;;;;;;;4.75;1.85;;;;;;;18.16;52.69;95783.41;10350714;28;20212;-75
2022/11/15 14:16:21;;;;;;;3.85;1.40;;;;;;;19.60;50.17;95755.53;10367585;28;20736;-73
2022/11/15 14:21:21;;;;;;;5.15;3.75;;;;;;;19.43;51.54;95781.22;10367430;28;20540;-76
2022/11/15 14:26:30;;;;;;;6.60;4.20;;;;;;;19.25;53.59;95804.25;10362594;28;20225;-75
2022/11/15 14:31:31;;;;;;;11.50;7.03;;;;;;;16.72;58.52;95830.50;10367953;28;20229;-75
2022/11/15 14:36:31;;;;;;;9.20;6.05;;;;;;;14.50;68.13;95944.94;10366756;28;20209;-75
2022/11/15 14:41:37;;;;;;;9.07;4.97;;;;;;;12.44;74.24;95982.09;10376303;28;20191;-75
2022/11/15 14:46:38;;;;;;;9.95;4.72;;;;;;;12.51;74.22;95950.63;10364575;28;20313;-75
2022/11/15 14:51:38;;;;;;;6.45;4.25;;;;;;;11.74;76.71;95956.19;10365166;28;20212;-76
2022/11/15 14:56:38;;;;;;;20.63;10.88;;;;;;;11.16;77.94;95945.50;10364486;28;20212;-75
2022/11/15 15:01:39;;;;;;;21.02;12.23;;;;;;;10.13;82.47;95970.34;10366182;28;20196;-76
2022/11/15 15:06:39;;;;;;;47.40;17.17;;;;;;;9.57;86.29;95963.41;10364881;28;20225;-75
2022/11/15 15:11:40;;;;;;;121.03;45.17;;;;;;;8.73;92.59;95968.13;10364538;28;20673;-75
2022/11/15 15:16:40;;;;;;;124.60;41.93;;;;;;;8.56;99.84;95965.50;10365023;28;20185;-75
2022/11/15 15:21:40;;;;;;;15.07;6.20;;;;;;;8.42;100.00;95963.47;10360449;28;20200;-75
2022/11/15 15:26:43;;;;;;;11.63;6.13;;;;;;;8.56;100.00;95959.47;10367016;28;20221;-75
2022/11/15 15:31:43;;;;;;;7.17;4.40;;;;;;;8.50;100.00;95966.13;10364706;28;20225;-75
2022/11/15 15:36:43;;;;;;;9.43;5.23;;;;;;;7.96;100.00;95974.31;10366006;28;20677;-74
2022/11/15 15:41:44;;;;;;;8.03;5.10;;;;;;;7.90;100.00;95971.50;10365681;28;20295;-75
2022/11/15 15:46:44;;;;;;;8.27;5.07;;;;;;;7.49;100.00;95974.78;10358780;28;20210;-74
2022/11/15 15:51:44;;;;;;;9.67;4.73;;;;;;;7.20;100.00;95973.31;10325448;28;20189;-76
2022/11/15 15:56:45;;;;;;;11.20;4.63;;;;;;;7.41;100.00;95965.13;10324799;28;20194;-75
2022/11/15 16:01:46;;;;;;;8.57;4.63;;;;;;;7.43;100.00;95962.38;10324886;28;20182;-75
2022/11/15 16:06:46;;;;;;;9.77;5.43;;;;;;;7.15;100.00;95957.31;10355414;28;20267;-75
2022/11/15 16:11:47;;;;;;;10.50;5.93;;;;;;;7.06;100.00;95959.06;10362854;28;20193;-75
2022/11/15 16:16:47;;;;;;;10.50;6.47;;;;;;;6.79;100.00;95958.22;10364511;28;20538;-75
2022/11/15 16:21:47;;;;;;;13.50;7.10;;;;;;;6.77;100.00;95954.97;10365057;28;20665;-75
2022/11/15 16:26:48;;;;;;;8.80;5.53;;;;;;;6.82;100.00;95956.31;10365291;28;20562;-75
2022/11/15 16:31:49;;;;;;;19.17;10.07;;;;;;;6.67;100.00;95946.41;10360982;28;20324;-76
2022/11/15 16:36:50;;;;;;;153.83;77.07;;;;;;;6.63;100.00;95945.09;10361585;28;20197;-76
2022/11/15 16:41:50;;;;;;;138.63;65.97;;;;;;;6.59;100.00;95954.19;10368813;28;20275;-76
2022/11/15 16:46:51;;;;;;;104.30;55.27;;;;;;;6.32;100.00;95953.28;10371714;28;20221;-76
2022/11/15 16:51:52;;;;;;;51.23;31.60;;;;;;;6.06;100.00;95956.63;10371589;28;20572;-75
2022/11/15 16:56:52;;;;;;;24.90;16.37;;;;;;;6.10;100.00;95957.16;10369960;28;20181;-76
2022/11/15 17:01:53;;;;;;;19.53;13.40;;;;;;;6.03;100.00;95949.13;10369496;28;20185;-76
2022/11/15 17:06:53;;;;;;;13.57;7.73;;;;;;;5.76;100.00;95952.53;10369024;28;20220;-75
2022/11/15 17:11:53;;;;;;;10.67;6.20;;;;;;;5.65;100.00;95945.75;10372107;28;20235;-75
2022/11/15 17:16:54;;;;;;;9.10;5.37;;;;;;;5.71;100.00;95924.38;10368530;28;20185;-75
2022/11/15 17:21:54;;;;;;;11.07;6.20;;;;;;;5.74;100.00;95925.06;10370768;28;20288;-75
2022/11/15 17:26:55;;;;;;;9.73;6.33;;;;;;;5.67;100.00;95932.63;10366895;28;20228;-75
2022/11/15 17:31:55;;;;;;;9.57;6.83;;;;;;;5.38;100.00;95930.19;10368255;28;20229;-75
2022/11/15 17:36:55;;;;;;;10.17;6.10;;;;;;;5.34;100.00;95938.25;10370847;28;20207;-75
2022/11/15 17:41:56;;;;;;;6.40;4.97;;;;;;;5.47;100.00;95937.09;10365594;28;20189;-75
2022/11/15 17:46:57;;;;;;;38.07;20.73;;;;;;;5.38;100.00;95930.19;10367497;28;20215;-75
2022/11/15 17:51:57;;;;;;;10.73;6.43;;;;;;;5.33;100.00;95922.81;10365662;28;20247;-75
2022/11/15 17:56:57;;;;;;;9.87;4.97;;;;;;;5.56;100.00;95915.44;10364131;28;20221;-75
2022/11/15 18:01:58;;;;;;;14.77;7.83;;;;;;;5.56;100.00;95910.25;10376993;28;20198;-75
2022/11/15 18:06:58;;;;;;;8.93;5.20;;;;;;;5.51;100.00;95904.66;10383285;28;20228;-75
2022/11/15 18:11:59;;;;;;;5.97;4.20;;;;;;;5.36;100.00;95893.97;10387033;28;21066;-75
2022/11/15 18:16:59;;;;;;;11.40;4.20;;;;;;;5.23;100.00;95880.47;10388083;28;20192;-75
2022/11/15 18:22:00;;;;;;;8.10;4.87;;;;;;;5.12;100.00;95892.69;10410811;28;20188;-75
2022/11/15 18:27:02;;;;;;;6.20;4.13;;;;;;;4.98;100.00;95883.56;10389532;28;20288;-75
2022/11/15 18:32:09;;;;;;;7.83;3.53;;;;;;;4.89;100.00;95881.84;10381919;28;20233;-74
2022/11/15 18:37:10;;;;;;;8.63;4.90;;;;;;;4.78;100.00;95876.84;10408541;28;20212;-75
2022/11/15 18:42:10;;;;;;;6.80;4.47;;;;;;;4.72;100.00;95869.59;10408025;28;20663;-75
2022/11/15 18:47:10;;;;;;;5.67;3.97;;;;;;;4.70;100.00;95866.31;10408041;28;20196;-75
2022/11/15 18:52:11;;;;;;;5.43;4.33;;;;;;;4.59;100.00;95868.09;10407139;28;20200;-75
2022/11/15 18:57:11;;;;;;;7.00;4.53;;;;;;;4.53;100.00;95860.09;10404190;28;20684;-75
2022/11/15 19:02:12;;;;;;;7.57;5.17;;;;;;;4.54;100.00;95862.53;10369499;28;20264;-75
2022/11/15 19:07:12;;;;;;;8.67;4.53;;;;;;;4.50;100.00;95860.38;10363928;28;20195;-75
2022/11/15 19:12:12;;;;;;;9.37;4.23;;;;;;;4.45;100.00;95853.00;10364719;28;20193;-75
2022/11/15 19:17:13;;;;;;;11.87;5.53;;;;;;;4.31;100.00;95851.66;10364584;28;20185;-75
2022/11/15 19:22:13;;;;;;;13.00;8.07;;;;;;;4.28;100.00;95857.94;10362796;28;20200;-75
2022/11/15 19:27:13;;;;;;;9.17;4.57;;;;;;;4.40;100.00;95852.63;10363912;28;20662;-75
2022/11/15 19:32:14;;;;;;;9.07;6.20;;;;;;;4.37;100.00;95851.09;10387148;28;20588;-75
2022/11/15 19:37:14;;;;;;;32.10;15.63;;;;;;;4.36;100.00;95833.91;10406210;28;20220;-75
2022/11/15 19:42:15;;;;;;;12.37;7.83;;;;;;;4.29;100.00;95838.84;10362703;28;20221;-75
2022/11/15 19:47:15;;;;;;;13.67;10.87;;;;;;;4.31;100.00;95828.31;10355349;28;20255;-75
2022/11/15 19:52:15;;;;;;;39.97;20.57;;;;;;;4.37;100.00;95824.38;10380021;28;20193;-75
2022/11/15 19:57:16;;;;;;;15.97;9.37;;;;;;;4.34;100.00;95830.66;10366052;28;20205;-75
2022/11/15 20:02:16;;;;;;;15.33;6.67;;;;;;;4.43;100.00;95824.63;10365367;28;20212;-75
2022/11/15 20:07:17;;;;;;;21.97;13.43;;;;;;;4.31;100.00;95820.56;10360477;28;20215;-75
2022/11/15 20:12:17;;;;;;;23.00;11.73;;;;;;;4.24;100.00;95825.50;10363824;28;20741;-75
2022/11/15 20:17:17;;;;;;;7.10;4.43;;;;;;;4.11;100.00;95819.78;10365381;28;20248;-75
2022/11/15 20:22:18;;;;;;;7.47;4.70;;;;;;;4.05;100.00;95830.69;10365069;28;20197;-75
2022/11/15 20:27:18;;;;;;;9.77;7.07;;;;;;;3.87;100.00;95815.81;10365077;28;20674;-75
2022/11/15 20:32:19;;;;;;;13.23;6.30;;;;;;;3.68;100.00;95803.69;10365382;28;20224;-75
2022/11/15 20:37:19;;;;;;;7.53;5.33;;;;;;;3.54;100.00;95799.75;10363175;28;20296;-75
2022/11/15 20:42:20;;;;;;;8.53;5.30;;;;;;;3.90;100.00;95800.00;10361951;28;20662;-75
2022/11/15 20:47:20;;;;;;;11.07;7.13;;;;;;;4.15;100.00;95803.00;10362276;28;20715;-75
2022/11/15 20:52:21;;;;;;;10.00;5.30;;;;;;;4.06;100.00;95801.25;10361862;28;20192;-75
2022/11/15 20:57:21;;;;;;;10.07;5.60;;;;;;;4.03;100.00;95778.19;10363696;28;20280;-75
2022/11/15 21:02:21;;;;;;;8.80;5.10;;;;;;;3.90;100.00;95781.84;10362663;28;20189;-75
2022/11/15 21:07:22;;;;;;;9.47;5.37;;;;;;;3.84;100.00;95786.78;10361029;28;20196;-75
2022/11/15 21:12:22;;;;;;;9.27;5.60;;;;;;;3.59;100.00;95788.16;10363141;28;20193;-75
2022/11/15 21:17:22;;;;;;;7.63;5.40;;;;;;;3.50;100.00;95785.41;10362131;28;20540;-75
2022/11/15 21:22:23;;;;;;;9.67;5.90;;;;;;;3.27;100.00;95776.28;10361088;28;20196;-75
2022/11/15 21:27:24;;;;;;;17.80;11.07;;;;;;;2.91;100.00;95774.19;10363748;28;20181;-75
2022/11/15 21:32:25;;;;;;;22.30;11.03;;;;;;;2.82;100.00;95770.59;10352009;28;20193;-76
2022/11/15 21:37:25;;;;;;;11.53;7.03;;;;;;;2.82;100.00;95764.63;10368518;28;20217;-75
2022/11/15 21:42:25;;;;;;;21.43;8.73;;;;;;;2.83;100.00;95758.47;10368381;28;20185;-75
2022/11/15 21:47:26;;;;;;;16.00;9.30;;;;;;;2.32;100.00;95755.84;10365579;28;20575;-75
2022/11/15 21:52:26;;;;;;;18.20;12.10;;;;;;;1.96;100.00;95744.25;10369440;28;20258;-75
2022/11/15 21:57:29;;;;;;;17.97;9.83;;;;;;;1.74;100.00;95740.03;10383995;28;20248;-75
2022/11/15 22:02:29;;;;;;;14.20;8.43;;;;;;;1.70;100.00;95742.06;10386596;28;20242;-75
2022/11/15 22:07:29;;;;;;;12.77;8.00;;;;;;;1.50;100.00;95729.94;10410002;28;20689;-75
2022/11/15 22:12:30;;;;;;;16.93;9.00;;;;;;;1.30;100.00;95734.94;10411683;28;20261;-75
2022/11/15 22:22:49;;;;;;;13.17;8.27;;;;;;;1.26;100.00;95741.31;10403153;28;20224;-76
2022/11/15 22:27:50;;;;;;;10.67;8.00;;;;;;;1.08;100.00;95735.88;10370156;28;20233;-75
2022/11/15 22:32:51;;;;;;;13.00;8.23;;;;;;;0.99;100.00;95727.09;10370108;28;20650;-75
2022/11/15 22:37:51;;;;;;;11.30;7.83;;;;;;;1.08;100.00;95720.38;10369903;28;20208;-75
2022/11/15 22:42:52;;;;;;;16.40;7.50;;;;;;;1.25;100.00;95716.44;10387048;28;20689;-75
2022/11/15 22:47:53;;;;;;;13.53;8.10;;;;;;;1.00;100.00;95702.13;10410106;28;20198;-75
2022/11/15 22:52:53;;;;;;;15.33;8.83;;;;;;;0.92;100.00;95691.59;10404558;28;20184;-75
2022/11/15 22:57:53;;;;;;;19.90;8.67;;;;;;;1.41;100.00;95695.41;10410312;28;20196;-75
2022/11/15 23:02:54;;;;;;;12.43;6.93;;;;;;;1.90;100.00;95685.34;10409555;28;20222;-75
2022/11/15 23:07:54;;;;;;;8.40;5.90;;;;;;;2.13;100.00;95686.03;10410126;28;20645;-75
2022/11/15 23:13:17;;;;;;;11.07;6.50;;;;;;;2.50;100.00;95668.19;10409469;28;20193;-75
2022/11/15 23:18:18;;;;;;;8.17;5.37;;;;;;;2.71;100.00;95659.53;10409242;28;20602;-75
2022/11/15 23:23:18;;;;;;;7.87;4.63;;;;;;;2.93;100.00;95642.94;10409091;28;20311;-75
2022/11/15 23:28:19;;;;;;;7.53;5.20;;;;;;;2.79;100.00;95643.34;10409109;28;20626;-76
2022/11/15 23:38:39;;;;;;;6.90;5.30;;;;;;;1.99;100.00;95624.34;10408819;28;20556;-75
2022/11/15 23:43:40;;;;;;;9.40;6.10;;;;;;;1.56;100.00;95623.63;10408434;28;20220;-75
2022/11/15 23:48:40;;;;;;;12.27;8.53;;;;;;;1.29;100.00;95626.72;10407883;28;20200;-75
2022/11/15 23:53:42;;;;;;;8.70;6.10;;;;;;;1.55;100.00;95622.00;10408642;28;20191;-76
2022/11/15 23:58:43;;;;;;;9.07;5.00;;;;;;;2.34;100.00;95621.34;10407734;28;20200;-75
